createdAt,value
2023-01-20T00:01:38.552Z,93197.44
2023-01-20T00:04:05.833Z,93197.28
2023-01-20T00:06:32.607Z,93176.81
2023-01-20T00:09:00.887Z,93147.03
2023-01-20T00:11:30.625Z,93138.88
2023-01-20T00:13:59.470Z,93065.00
2023-01-20T00:16:27.360Z,93010.44
2023-01-20T00:18:55.023Z,92974.09
2023-01-20T00:21:21.724Z,92979.88
2023-01-20T00:23:49.335Z,92990.69
2023-01-20T00:26:21.788Z,92996.66
2023-01-20T00:28:49.777Z,93003.91
2023-01-20T00:31:29.595Z,93001.53
2023-01-20T00:34:00.611Z,92972.75
2023-01-20T00:36:29.714Z,92965.13
2023-01-20T00:38:56.338Z,92973.75
2023-01-20T00:41:23.332Z,92952.13
2023-01-20T00:43:50.080Z,92940.72
2023-01-20T00:46:17.105Z,92959.97
2023-01-20T00:48:44.871Z,92943.06
2023-01-20T00:51:12.003Z,92935.50
2023-01-20T00:53:38.642Z,92934.38
2023-01-20T00:56:06.049Z,92942.13
2023-01-20T00:58:32.677Z,92947.81
2023-01-20T01:00:59.879Z,92959.31
2023-01-20T01:03:28.224Z,92956.41
2023-01-20T01:05:55.126Z,92959.97
2023-01-20T01:08:21.801Z,92953.03
2023-01-20T01:10:48.394Z,92951.22
2023-01-20T01:13:14.968Z,92976.72
2023-01-20T01:15:49.781Z,92971.69
2023-01-20T01:18:17.105Z,92963.47
2023-01-20T01:20:44.883Z,92941.81
2023-01-20T01:23:12.312Z,92961.63
2023-01-20T01:25:38.936Z,92975.22
2023-01-20T01:28:05.871Z,92971.00
2023-01-20T01:30:32.522Z,92956.50
2023-01-20T01:32:59.183Z,92965.16
2023-01-20T01:35:25.810Z,92985.25
2023-01-20T01:37:52.465Z,92957.97
2023-01-20T01:40:19.183Z,92972.97
2023-01-20T01:42:45.807Z,92952.31
2023-01-20T01:45:12.925Z,92968.09
2023-01-20T01:48:09.592Z,92998.19
2023-01-20T01:50:39.215Z,92993.09
2023-01-20T01:53:07.167Z,93004.91
2023-01-20T01:55:39.690Z,93013.38
2023-01-20T01:58:09.107Z,93006.75
2023-01-20T02:00:36.241Z,92997.59
2023-01-20T02:03:03.035Z,93001.09
2023-01-20T02:05:30.964Z,92993.47
2023-01-20T02:07:59.608Z,92993.94
2023-01-20T02:10:26.437Z,92979.09
2023-01-20T02:12:53.799Z,92964.72
2023-01-20T02:15:26.425Z,92969.13
2023-01-20T02:18:42.519Z,92966.38
2023-01-20T02:21:23.365Z,92965.88
2023-01-20T02:24:30.038Z,92971.94
2023-01-20T02:27:25.704Z,92963.19
2023-01-20T02:30:25.740Z,92952.78
2023-01-20T02:33:07.423Z,92958.66
2023-01-20T02:35:42.656Z,92952.56
2023-01-20T02:38:21.309Z,92955.28
2023-01-20T02:41:09.360Z,92953.84
2023-01-20T02:43:47.272Z,92939.22
2023-01-20T02:46:36.264Z,92945.75
2023-01-20T02:49:25.056Z,92937.69
2023-01-20T02:52:01.459Z,92934.34
2023-01-20T02:54:32.902Z,92922.31
2023-01-20T02:57:02.465Z,92920.50
2023-01-20T02:59:37.188Z,92905.25
2023-01-20T03:02:10.224Z,92904.16
2023-01-20T03:04:45.496Z,92905.66
2023-01-20T03:07:14.150Z,92910.81
2023-01-20T03:09:47.579Z,92922.00
2023-01-20T03:12:19.418Z,92920.06
2023-01-20T03:14:46.049Z,92915.03
2023-01-20T03:17:12.745Z,92917.53
2023-01-20T03:19:39.376Z,92914.97
2023-01-20T03:22:06.495Z,92918.06
2023-01-20T03:24:34.859Z,92917.31
2023-01-20T03:27:01.806Z,92919.50
2023-01-20T03:29:30.652Z,92914.97
2023-01-20T03:31:59.877Z,92918.13
2023-01-20T03:34:31.806Z,92918.84
2023-01-20T03:37:00.635Z,92926.97
2023-01-20T03:39:27.959Z,92918.69
2023-01-20T03:42:14.424Z,92920.34
2023-01-20T03:45:05.373Z,92928.69
2023-01-20T03:47:44.035Z,92920.38
2023-01-20T03:50:26.258Z,92902.75
2023-01-20T03:53:04.487Z,92887.22
2023-01-20T03:55:57.530Z,92886.28
2023-01-20T03:58:30.543Z,92879.53
2023-01-20T04:00:58.051Z,92876.09
2023-01-20T04:03:32.852Z,92875.72
2023-01-20T04:06:02.975Z,92873.50
2023-01-20T04:08:36.819Z,92868.03
2023-01-20T04:11:06.822Z,92866.50
2023-01-20T04:13:34.023Z,92861.13
2023-01-20T04:16:03.217Z,92864.91
2023-01-20T04:18:29.950Z,92852.44
2023-01-20T04:21:02.520Z,92846.81
2023-01-20T04:23:36.998Z,92836.88
2023-01-20T04:26:03.643Z,92838.03
2023-01-20T04:28:30.247Z,92842.22
2023-01-20T04:30:56.969Z,92836.13
2023-01-20T04:33:23.749Z,92831.91
2023-01-20T04:35:50.357Z,92832.72
2023-01-20T04:38:16.947Z,92846.06
2023-01-20T04:40:43.568Z,92852.13
2023-01-20T04:43:10.291Z,92861.88
2023-01-20T04:45:36.901Z,92861.09
2023-01-20T04:48:10.046Z,92869.41
2023-01-20T04:50:40.814Z,92871.84
2023-01-20T04:53:07.872Z,92880.75
2023-01-20T04:55:34.534Z,92876.94
2023-01-20T04:58:01.156Z,92881.94
2023-01-20T05:00:28.577Z,92893.75
2023-01-20T05:02:59.024Z,92899.06
2023-01-20T05:05:25.837Z,92908.91
2023-01-20T05:07:53.496Z,92905.22
2023-01-20T05:10:20.644Z,92901.16
2023-01-20T05:12:47.573Z,92895.22
2023-01-20T05:15:14.591Z,92892.63
2023-01-20T05:17:41.432Z,92886.28
2023-01-20T05:20:08.791Z,92889.41
2023-01-20T05:22:35.377Z,92900.88
2023-01-20T05:25:02.442Z,92903.69
2023-01-20T05:27:29.063Z,92902.44
2023-01-20T05:29:55.647Z,92900.09
2023-01-20T05:32:22.232Z,92911.88
2023-01-20T05:34:48.792Z,92923.50
2023-01-20T05:37:18.123Z,92925.84
2023-01-20T05:39:44.720Z,92912.28
2023-01-20T05:42:11.452Z,92893.47
2023-01-20T05:44:38.060Z,92879.72
2023-01-20T05:47:04.751Z,92874.84
2023-01-20T05:49:31.307Z,92871.66
2023-01-20T05:51:57.918Z,92845.16
2023-01-20T05:54:24.616Z,92851.69
2023-01-20T05:56:51.181Z,92881.50
2023-01-20T05:59:17.863Z,92880.16
2023-01-20T06:01:44.477Z,92877.28
2023-01-20T06:04:11.093Z,92890.66
2023-01-20T06:06:37.929Z,92894.16
2023-01-20T06:09:04.496Z,92873.09
2023-01-20T06:11:31.053Z,92872.84
2023-01-20T06:13:57.661Z,92879.41
2023-01-20T06:16:24.305Z,92897.00
2023-01-20T06:18:50.913Z,92895.97
2023-01-20T06:21:17.555Z,92889.19
2023-01-20T06:23:44.297Z,92892.13
2023-01-20T06:26:13.654Z,92897.06
2023-01-20T06:28:40.317Z,92871.41
2023-01-20T06:31:09.675Z,92877.19
2023-01-20T06:33:36.598Z,92882.50
2023-01-20T06:36:03.961Z,92902.41
2023-01-20T06:38:32.767Z,92891.66
2023-01-20T06:41:04.375Z,92892.31
2023-01-20T06:43:32.665Z,92899.50
2023-01-20T06:46:05.343Z,92880.81
2023-01-20T06:48:32.791Z,92861.03
2023-01-20T06:51:08.467Z,92879.03
2023-01-20T06:53:35.051Z,92875.59
2023-01-20T06:56:02.294Z,92880.09
2023-01-20T06:58:31.144Z,92878.97
2023-01-20T07:01:03.746Z,92865.25
2023-01-20T07:03:30.542Z,92871.06
2023-01-20T07:06:03.116Z,92864.63
2023-01-20T07:08:30.528Z,92863.63
2023-01-20T07:10:57.326Z,92866.66
2023-01-20T07:13:23.891Z,92861.72
2023-01-20T07:15:50.520Z,92873.13
2023-01-20T07:18:17.061Z,92867.97
2023-01-20T07:20:43.852Z,92865.81
2023-01-20T07:23:10.526Z,92873.25
2023-01-20T07:25:38.397Z,92873.69
2023-01-20T07:28:05.227Z,92871.13
2023-01-20T07:30:31.875Z,92870.69
2023-01-20T07:32:58.448Z,92877.78
2023-01-20T07:35:25.007Z,92859.72
2023-01-20T07:37:51.561Z,92851.47
2023-01-20T07:40:18.643Z,92840.88
2023-01-20T07:42:45.267Z,92841.78
2023-01-20T07:45:11.978Z,92845.16
2023-01-20T07:47:38.692Z,92837.63
2023-01-20T07:50:05.877Z,92838.03
2023-01-20T07:52:32.499Z,92836.13
2023-01-20T07:54:59.093Z,92824.69
2023-01-20T07:57:25.665Z,92829.53
2023-01-20T07:59:52.233Z,92845.22
2023-01-20T08:02:18.798Z,92849.13
2023-01-20T08:04:45.431Z,92837.63
2023-01-20T08:07:12.024Z,92822.38
2023-01-20T08:09:40.575Z,92799.03
2023-01-20T08:12:07.324Z,92806.06
2023-01-20T08:14:35.172Z,92810.25
2023-01-20T08:17:03.637Z,92815.78
2023-01-20T08:19:30.173Z,92822.47
2023-01-20T08:21:56.855Z,92824.53
2023-01-20T08:24:23.421Z,92822.72
2023-01-20T08:26:51.554Z,92817.75
2023-01-20T08:29:18.143Z,92825.69
2023-01-20T08:31:45.202Z,92816.47
2023-01-20T08:34:12.430Z,92813.06
2023-01-20T08:36:41.307Z,92800.97
2023-01-20T08:39:10.342Z,92785.91
2023-01-20T08:41:38.892Z,92771.53
2023-01-20T08:44:07.702Z,92771.56
2023-01-20T08:46:35.006Z,92771.09
2023-01-20T08:49:01.634Z,92780.00
2023-01-20T08:51:32.120Z,92761.28
2023-01-20T08:53:59.279Z,92755.19
2023-01-20T08:56:26.830Z,92762.84
2023-01-20T08:58:54.332Z,92764.34
2023-01-20T09:01:26.645Z,92769.72
2023-01-20T09:04:04.837Z,92778.50
2023-01-20T09:06:48.674Z,92768.50
2023-01-20T09:09:17.865Z,92779.56
2023-01-20T09:11:51.330Z,92777.25
2023-01-20T09:14:22.969Z,92770.06
2023-01-20T09:16:49.868Z,92774.22
2023-01-20T09:19:17.406Z,92767.78
2023-01-20T09:21:44.452Z,92758.13
2023-01-20T09:24:11.141Z,92770.75
2023-01-20T09:26:40.524Z,92763.91
2023-01-20T09:29:15.705Z,92757.84
2023-01-20T09:31:45.884Z,92767.41
2023-01-20T09:34:19.317Z,92756.34
2023-01-20T09:36:46.314Z,92762.84
2023-01-20T09:39:32.851Z,92760.16
2023-01-20T09:42:22.855Z,92750.63
2023-01-20T09:45:22.778Z,92756.72
2023-01-20T09:47:49.640Z,92768.53
2023-01-20T09:50:44.387Z,92764.34
2023-01-20T09:53:21.765Z,92755.44
2023-01-20T09:55:57.740Z,92739.84
2023-01-20T09:59:01.571Z,92744.75
2023-01-20T10:01:36.559Z,92731.38
2023-01-20T10:04:10.216Z,92737.63
2023-01-20T10:06:43.212Z,92734.56
2023-01-20T10:09:29.060Z,92737.25
2023-01-20T10:12:18.187Z,92724.56
2023-01-20T10:14:58.505Z,92716.13
2023-01-20T10:17:57.282Z,92704.03
2023-01-20T10:20:46.577Z,92689.44
2023-01-20T10:23:51.918Z,92693.50
2023-01-20T10:26:28.877Z,92698.88
2023-01-20T10:29:04.052Z,92700.06
2023-01-20T10:31:38.993Z,92706.19
2023-01-20T10:34:15.915Z,92717.69
2023-01-20T10:36:46.989Z,92711.97
2023-01-20T10:39:32.683Z,92705.88
2023-01-20T10:42:09.758Z,92702.84
2023-01-20T10:44:36.534Z,92700.53
2023-01-20T10:47:17.828Z,92699.75
2023-01-20T10:49:52.690Z,92690.56
2023-01-20T10:52:28.155Z,92700.16
2023-01-20T10:55:01.075Z,92699.03
2023-01-20T10:57:28.230Z,92700.56
2023-01-20T11:00:00.902Z,92713.56
2023-01-20T11:02:35.136Z,92713.19
2023-01-20T11:05:24.411Z,92700.97
2023-01-20T11:07:53.886Z,92712.06
2023-01-20T11:10:29.309Z,92701.75
2023-01-20T11:12:59.715Z,92686.78
2023-01-20T11:15:33.624Z,92693.25
2023-01-20T11:18:15.457Z,92697.03
2023-01-20T11:20:54.048Z,92709.84
2023-01-20T11:23:40.854Z,92700.53
2023-01-20T11:26:21.346Z,92695.09
2023-01-20T11:28:57.105Z,92697.56
2023-01-20T11:31:44.284Z,92700.50
2023-01-20T11:34:34.179Z,92707.16
2023-01-20T11:37:06.989Z,92696.38
2023-01-20T11:39:35.122Z,92705.25
2023-01-20T11:42:14.435Z,92708.38
2023-01-20T11:44:44.429Z,92703.25
2023-01-20T11:47:17.033Z,92720.03
2023-01-20T11:49:43.636Z,92720.19
2023-01-20T11:52:20.960Z,92712.34
2023-01-20T11:54:48.068Z,92716.06
2023-01-20T11:57:17.279Z,92724.13
2023-01-20T11:59:49.565Z,92726.81
2023-01-20T12:02:24.871Z,92737.94
2023-01-20T12:05:16.145Z,92738.94
2023-01-20T12:07:46.424Z,92746.91
2023-01-20T12:10:25.849Z,92750.00
2023-01-20T12:13:00.098Z,92772.34
2023-01-20T12:15:31.925Z,92783.63
2023-01-20T12:18:01.083Z,92793.31
2023-01-20T12:20:27.926Z,92796.84
2023-01-20T12:22:59.177Z,92792.31
2023-01-20T12:25:33.954Z,92800.88
2023-01-20T12:28:10.140Z,92797.78
2023-01-20T12:30:42.913Z,92793.66
2023-01-20T12:33:22.811Z,92806.25
2023-01-20T12:36:09.644Z,92828.66
2023-01-20T12:38:47.341Z,92826.13
2023-01-20T12:41:26.527Z,92830.34
2023-01-20T12:44:17.892Z,92838.75
2023-01-20T12:47:23.053Z,92839.63
2023-01-20T12:49:52.220Z,92832.72
2023-01-20T12:52:32.426Z,92824.88
2023-01-20T12:55:26.614Z,92835.56
2023-01-20T12:58:15.345Z,92830.72
2023-01-20T13:00:47.766Z,92827.94
2023-01-20T13:04:05.084Z,92838.47
2023-01-20T13:06:47.246Z,92832.50
2023-01-20T13:09:43.933Z,92828.72
2023-01-20T13:12:39.504Z,92854.84
2023-01-20T13:15:18.535Z,92847.94
2023-01-20T13:18:07.388Z,92857.53
2023-01-20T13:20:38.334Z,92870.44
2023-01-20T13:23:06.692Z,92875.84
2023-01-20T13:25:35.275Z,92864.06
2023-01-20T13:28:03.184Z,92857.97
2023-01-20T13:30:51.658Z,92861.28
2023-01-20T13:33:34.041Z,92865.66
2023-01-20T13:36:27.018Z,92865.66
2023-01-20T13:39:31.469Z,92866.25
2023-01-20T13:41:58.080Z,92872.38
2023-01-20T13:44:39.914Z,92873.84
2023-01-20T13:47:11.378Z,92867.19
2023-01-20T13:49:43.799Z,92867.03
2023-01-20T13:52:11.926Z,92863.25
2023-01-20T13:54:43.338Z,92881.66
2023-01-20T13:57:23.378Z,92885.06
2023-01-20T13:59:50.371Z,92893.44
2023-01-20T14:02:28.642Z,92906.53
2023-01-20T14:04:56.300Z,92925.81
2023-01-20T14:07:30.041Z,92919.03
2023-01-20T14:09:59.712Z,92921.97
2023-01-20T14:12:26.893Z,92929.56
2023-01-20T14:14:54.643Z,92932.53
2023-01-20T14:17:24.782Z,92924.06
2023-01-20T14:19:54.238Z,92925.13
2023-01-20T14:22:25.046Z,92934.63
2023-01-20T14:24:54.409Z,92934.88
2023-01-20T14:27:28.373Z,92944.44
2023-01-20T14:30:19.443Z,92942.81
2023-01-20T14:32:49.080Z,92935.91
2023-01-20T14:35:33.635Z,92935.63
2023-01-20T14:38:00.989Z,92938.22
2023-01-20T14:40:31.231Z,92937.72
2023-01-20T14:43:02.227Z,92938.06
2023-01-20T14:45:32.077Z,92950.59
2023-01-20T14:48:02.159Z,92943.63
2023-01-20T14:50:29.076Z,92963.06
2023-01-20T14:52:56.334Z,92961.19
2023-01-20T14:55:30.201Z,92971.56
2023-01-20T14:57:57.143Z,92977.63
2023-01-20T15:00:28.371Z,92992.44
2023-01-20T15:03:19.485Z,92986.75
2023-01-20T15:06:17.117Z,93001.03
2023-01-20T15:09:04.334Z,93005.75
2023-01-20T15:11:33.499Z,93019.63
2023-01-20T15:14:04.972Z,93014.81
2023-01-20T15:16:43.970Z,93012.00
2023-01-20T15:19:13.374Z,93020.16
2023-01-20T15:22:01.030Z,93028.06
2023-01-20T15:24:32.598Z,93027.97
2023-01-20T15:27:01.428Z,93037.13
2023-01-20T15:29:34.052Z,93047.75
2023-01-20T15:32:03.149Z,93064.97
2023-01-20T15:34:29.958Z,93055.78
2023-01-20T15:36:56.903Z,93069.38
2023-01-20T15:39:26.114Z,93071.59
2023-01-20T15:41:55.555Z,93095.44
2023-01-20T15:44:24.406Z,93101.38
2023-01-20T15:46:52.155Z,93099.69
2023-01-20T15:49:19.265Z,93107.91
2023-01-20T15:51:46.565Z,93117.78
2023-01-20T15:54:16.308Z,93125.81
2023-01-20T15:56:43.593Z,93132.97
2023-01-20T15:59:15.672Z,93134.50
2023-01-20T16:01:42.983Z,93135.94
2023-01-20T16:04:09.615Z,93140.78
2023-01-20T16:06:37.606Z,93144.38
2023-01-20T16:09:16.886Z,93142.53
2023-01-20T16:11:43.540Z,93155.06
2023-01-20T16:14:10.135Z,93153.44
2023-01-20T16:16:36.804Z,93155.28
2023-01-20T16:19:04.729Z,93160.34
2023-01-20T16:21:31.844Z,93162.78
2023-01-20T16:23:59.039Z,93179.25
2023-01-20T16:26:28.735Z,93184.44
2023-01-20T16:28:57.685Z,93191.72
2023-01-20T16:31:25.939Z,93192.84
2023-01-20T16:33:53.336Z,93197.91
2023-01-20T16:36:21.559Z,93195.34
2023-01-20T16:38:49.262Z,93193.28
2023-01-20T16:41:24.054Z,93198.34
2023-01-20T16:43:52.696Z,93187.78
2023-01-20T16:46:23.584Z,93199.06
2023-01-20T16:48:50.922Z,93192.63
2023-01-20T16:51:22.735Z,93197.53
2023-01-20T16:53:49.403Z,93194.66
2023-01-20T16:56:21.963Z,93200.69
2023-01-20T16:58:50.269Z,93193.59
2023-01-20T17:01:21.206Z,93196.09
2023-01-20T17:03:48.379Z,93200.66
2023-01-20T17:06:18.175Z,93208.78
2023-01-20T17:08:51.029Z,93206.59
2023-01-20T17:11:22.340Z,93206.16
2023-01-20T17:13:49.404Z,93208.69
2023-01-20T17:16:16.894Z,93203.63
2023-01-20T17:18:46.540Z,93202.91
2023-01-20T17:21:14.336Z,93196.88
2023-01-20T17:23:41.467Z,93203.81
2023-01-20T17:26:09.505Z,93199.03
2023-01-20T17:28:36.168Z,93206.16
2023-01-20T17:31:06.553Z,93219.38
2023-01-20T17:33:33.624Z,93230.09
2023-01-20T17:36:05.869Z,93234.25
2023-01-20T17:38:34.564Z,93231.84
2023-01-20T17:41:02.786Z,93237.63
2023-01-20T17:43:34.210Z,93246.91
2023-01-20T17:46:02.267Z,93250.88
2023-01-20T17:48:29.313Z,93238.53
2023-01-20T17:50:59.456Z,93242.38
2023-01-20T17:53:26.716Z,93251.16
2023-01-20T17:56:06.633Z,93252.88
2023-01-20T17:58:37.886Z,93259.06
2023-01-20T18:01:19.056Z,93263.91
2023-01-20T18:03:47.387Z,93268.09
2023-01-20T18:06:16.030Z,93265.44
2023-01-20T18:08:44.293Z,93274.81
2023-01-20T18:11:15.095Z,93276.94
2023-01-20T18:13:42.367Z,93287.84
2023-01-20T18:16:11.781Z,93279.69
2023-01-20T18:18:39.562Z,93279.50
2023-01-20T18:21:20.330Z,93281.38
2023-01-20T18:23:48.692Z,93295.59
2023-01-20T18:26:18.792Z,93287.44
2023-01-20T18:28:47.997Z,93292.63
2023-01-20T18:31:19.984Z,93294.50
2023-01-20T18:33:49.406Z,93300.97
2023-01-20T18:36:24.656Z,93307.63
2023-01-20T18:39:02.217Z,93320.00
2023-01-20T18:41:30.647Z,93315.31
2023-01-20T18:43:57.868Z,93322.63
2023-01-20T18:46:25.649Z,93323.06
2023-01-20T18:48:54.796Z,93326.16
2023-01-20T18:51:23.892Z,93327.28
2023-01-20T18:53:59.746Z,93334.56
2023-01-20T18:56:27.976Z,93344.72
2023-01-20T18:58:55.948Z,93351.34
2023-01-20T19:01:32.561Z,93361.28
2023-01-20T19:04:00.223Z,93357.75
2023-01-20T19:06:34.429Z,93364.25
2023-01-20T19:09:02.362Z,93363.78
2023-01-20T19:11:31.686Z,93370.44
2023-01-20T19:13:59.109Z,93380.94
2023-01-20T19:16:28.412Z,93387.44
2023-01-20T19:18:57.488Z,93382.03
2023-01-20T19:21:26.003Z,93397.69
2023-01-20T19:23:55.643Z,93401.72
2023-01-20T19:26:24.849Z,93397.13
2023-01-20T19:29:02.739Z,93405.75
2023-01-20T19:31:32.095Z,93398.97
2023-01-20T19:33:59.274Z,93408.38
2023-01-20T19:36:26.220Z,93400.63
2023-01-20T19:38:52.889Z,93411.53
2023-01-20T19:41:28.225Z,93418.50
2023-01-20T19:43:58.416Z,93418.34
2023-01-20T19:46:27.676Z,93431.63
2023-01-20T19:48:56.584Z,93426.59
2023-01-20T19:51:23.779Z,93432.97
2023-01-20T19:53:55.685Z,93428.00
2023-01-20T19:56:22.323Z,93435.94
2023-01-20T19:58:48.990Z,93433.94
2023-01-20T20:01:20.095Z,93435.28
2023-01-20T20:03:47.384Z,93433.34
2023-01-20T20:06:37.951Z,93442.00
2023-01-20T20:09:10.451Z,93441.34
2023-01-20T20:11:38.986Z,93446.56
2023-01-20T20:14:08.872Z,93458.75
2023-01-20T20:16:38.411Z,93456.44
2023-01-20T20:19:07.546Z,93462.78
2023-01-20T20:21:35.109Z,93457.06
2023-01-20T20:24:03.243Z,93462.84
2023-01-20T20:26:32.225Z,93459.78
2023-01-20T20:29:00.237Z,93474.38
2023-01-20T20:31:29.578Z,93471.88
2023-01-20T20:34:00.665Z,93468.84
2023-01-20T20:36:33.505Z,93464.94
2023-01-20T20:39:02.591Z,93460.56
2023-01-20T20:41:31.719Z,93457.75
2023-01-20T20:44:00.402Z,93462.00
2023-01-20T20:46:28.390Z,93461.63
2023-01-20T20:48:56.627Z,93459.53
2023-01-20T20:51:26.265Z,93461.69
2023-01-20T20:53:57.845Z,93467.59
2023-01-20T20:56:27.911Z,93468.00
2023-01-20T20:59:01.412Z,93462.88
2023-01-20T21:01:30.240Z,93477.84
2023-01-20T21:03:58.188Z,93473.97
2023-01-20T21:06:25.676Z,93469.66
2023-01-20T21:08:53.065Z,93477.66
2023-01-20T21:11:24.134Z,93484.47
2023-01-20T21:13:51.750Z,93473.31
2023-01-20T21:16:22.221Z,93470.94
2023-01-20T21:18:50.193Z,93478.06
2023-01-20T21:21:19.937Z,93483.94
2023-01-20T21:23:55.319Z,93492.06
2023-01-20T21:26:23.837Z,93494.09
2023-01-20T21:28:50.452Z,93510.91
2023-01-20T21:31:21.043Z,93505.84
2023-01-20T21:33:53.635Z,93504.09
2023-01-20T21:36:21.561Z,93503.09
2023-01-20T21:38:51.075Z,93497.69
2023-01-20T21:41:19.217Z,93498.56
2023-01-20T21:44:05.958Z,93509.50
2023-01-20T21:46:40.355Z,93506.63
2023-01-20T21:49:27.339Z,93515.00
2023-01-20T21:52:13.504Z,93504.13
2023-01-20T21:54:41.440Z,93500.88
2023-01-20T21:57:08.335Z,93510.41
2023-01-20T21:59:34.926Z,93515.44
2023-01-20T22:02:02.449Z,93506.56
2023-01-20T22:04:29.130Z,93506.38
2023-01-20T22:06:55.810Z,93510.22
2023-01-20T22:09:22.443Z,93510.75
2023-01-20T22:11:49.564Z,93511.34
2023-01-20T22:14:18.104Z,93519.00
2023-01-20T22:16:49.716Z,93509.22
2023-01-20T22:19:16.710Z,93512.78
2023-01-20T22:21:43.348Z,93512.16
2023-01-20T22:24:10.791Z,93510.19
2023-01-20T22:26:37.598Z,93518.84
2023-01-20T22:29:04.301Z,93511.13
2023-01-20T22:31:32.035Z,93506.84
2023-01-20T22:34:04.198Z,93509.06
2023-01-20T22:36:31.118Z,93513.25
2023-01-20T22:38:57.749Z,93520.25
2023-01-20T22:41:24.414Z,93517.91
2023-01-20T22:43:51.453Z,93514.16
2023-01-20T22:46:20.621Z,93516.72
2023-01-20T22:48:47.849Z,93517.56
2023-01-20T22:51:20.323Z,93521.00
2023-01-20T22:53:47.512Z,93514.38
2023-01-20T22:56:20.190Z,93521.06
2023-01-20T22:58:47.278Z,93513.44
2023-01-20T23:01:15.265Z,93516.56
2023-01-20T23:03:42.217Z,93516.25
2023-01-20T23:06:09.813Z,93506.84
2023-01-20T23:08:37.092Z,93514.63
2023-01-20T23:11:08.046Z,93509.94
2023-01-20T23:13:41.287Z,93507.53
2023-01-20T23:16:13.643Z,93513.88
2023-01-20T23:18:40.291Z,93527.25
2023-01-20T23:21:07.041Z,93524.19
2023-01-20T23:23:33.808Z,93523.31
2023-01-20T23:26:21.400Z,93513.81
2023-01-20T23:28:50.404Z,93523.19
2023-01-20T23:31:18.329Z,93523.31
2023-01-20T23:33:45.136Z,93523.97
2023-01-20T23:36:14.590Z,93514.00
2023-01-20T23:38:42.227Z,93516.69
2023-01-20T23:41:09.054Z,93508.03
2023-01-20T23:43:35.795Z,93513.50
2023-01-20T23:46:05.085Z,93499.00
2023-01-20T23:48:32.437Z,93501.44
2023-01-20T23:51:02.791Z,93498.03
2023-01-20T23:53:31.324Z,93496.81
2023-01-20T23:56:07.664Z,93504.34
2023-01-20T23:58:34.291Z,93510.22
